Share

Jonesville, VA (24263)

White Rocks View (KVAROSEH1) Elev 1470 ft | 36.65 °N, 83.40 °W | Change Station

Current weather conditions updated 7 seconds ago

Clear
Clear
40.5 °F
Feels Like 40 °F
N
1.0
Wind Variable Wind from NNW
Gusts 1.0 mph
Sunrise 6:51 AM
Sunset 8:11 PM
Moon Waning Gibbous

Today is forecast to be nearly the same temperature as yesterday.

Pressure 30.22 in
Visibility 10.0 miles
Clouds Clear
Windchill 40 °F
Dew Point 38 °F
Humidity 91%
Rainfall 0.00 in
Snow Depth Not available.
UV 0 out of 16
Pollen 6.80 out of 12
Air Quality Not available.
Flu Activity Regional
METAR KI35 200935Z AUTO 00000KT 10SM CLR 07/03 A3022 RMK AO1

More Conditions Fewer Conditions

Pressure 30.22 in
Visibility 10.0 miles
Clouds Clear
Windchill 40 °F
Dew Point 38 °F
Humidity 91%
Rainfall 0.00 in
Snow Depth Not available.
UV 0 out of 16
Pollen 6.80 out of 12
Air Quality Not available.
Flu Activity Regional
METAR KI35 200935Z AUTO 00000KT 10SM CLR 07/03 A3022 RMK AO1

More Conditions Fewer Conditions

10-Day Weather Forecast

Almanac

Astronomy

Apr. 20, 2014 Rise Set
Actual Time 6:51 AM EDT 8:11 PM EDT
Civil Twilight 6:25 AM EDT 8:38 PM EDT
Nautical Twilight 5:52 AM EDT 9:10 PM EDT
Astronomical Twilight 5:19 AM EDT 9:44 PM EDT
Moon 12:46 AM EDT 11:14 AM EDT
Length of Visible Light 14h 13m
Length of Day
13h 19m
Tomorrow will be 2m 9s longer.
Waning Gibbous, 71% of the Moon is Illuminated
Today
Waning Gibbous
Apr 22
Last Quarter
Apr 29
New
May 6
First Quarter
May 14
Full

Today's Extremes

State Highs State Lows

Community

  • Sunny day at the coast-Cape Arago Lighthouse
    Sunny day at the coast-Cape Arago Lighthouse
  • Cherry Blossoms
    Cherry Blossoms
  • White-Crowned Sparrow
    White-Crowned Sparrow
  • New Day
    New Day
  • Happy Easter!
    Happy Easter!

WunderPhotos

Upload Photos

1,703,123 photos uploaded!

WunderBlogs® & News

Nearby

Snow Depth

Station Depth Elevation
No new snow has been reported.

Coastal Water Temperatures

Place Temperature
No Stations Reporting

Earthquake Activity

City Distance Mag. Time & Date
No recent earthquake activity has been reported nearby.
Minimum magnitude displayed is 2.5.

Nearby Weather Stations

Station Location Temp. Windchill Dew Point Humidity Wind Precip. Elev Updated Type
White Rocks View, Rose Hill, VA 40.5 °F 40 °F 38 °F 91% NNW  at  1.0 mph 0.00 in / hr 1470 ft 5:55 AM EDT Rapid Fire
North Zion Hill Rd., Surgoinsville, TN 41.8 °F 42 °F 41 °F 96% WNW  at  0.0 mph 0.00 in / hr 1308 ft 5:55 AM EDT Rapid Fire

Show More Stations Show Fewer Stations

What do you think?

We're not finished. Please let us know what you like, what you don't like, and what you are still missing.